Time;durP1;ratioP1;P1;durP2;ratioP2;P2;SDS_P1;SDS_P2;PMS_P1;PMS_P2;Temp;Humidity;BMP_temperature;BMP_pressure;BME280_temperature;BME280_humidity;BME280_pressure;Samples;Min_cycle;Max_cycle;Signal;HPM_P1;HPM_P2
2021/03/26 22:00:08;;;;;;;;;;;;;;;;;;1815912;77;20219;-50
2021/03/26 22:02:34;;;;;;;;;;;;;;;;;;1785317;78;20213;-56
2021/03/26 22:04:59;;;;;;;;;;;;;;;;;;1793908;78;20207;-53
2021/03/26 22:07:25;;;;;;;;;;;;;;;;;;1784032;78;20229;-51
2021/03/26 22:09:50;;;;;;;;;;;;;;;;;;1783368;78;20189;-49
2021/03/26 22:12:15;;;;;;;;;;;;;;;;;;1790452;78;20282;-52
2021/03/26 22:14:41;;;;;;;;;;;;;;;;;;1792494;78;20209;-51
2021/03/26 22:17:06;;;;;;;;;;;;;;;;;;1789243;78;20193;-56
2021/03/26 22:19:31;;;;;;;;;;;;;;;;;;1784586;78;20177;-55
2021/03/26 22:21:57;;;;;;;;;;;;;;;;;;1791380;78;20166;-55
2021/03/26 22:24:22;;;;;;;;;;;;;;;;;;1781811;78;21194;-57
2021/03/26 22:26:47;;;;;;;;;;;;;;;;;;1785127;78;20249;-57
2021/03/26 22:29:26;;;;;;;;;;;;;;;;;;1786570;78;20166;-54
2021/03/26 22:31:51;;;;;;;;;;;;;;;;;;1785809;78;20329;-54
2021/03/26 22:34:16;;;;;;;;;;;;;;;;;;1790676;78;20155;-57
2021/03/26 22:36:42;;;;;;;;;;;;;;;;;;1773048;78;20316;-57
2021/03/26 22:39:07;;;;;;;;;;;;;;;;;;1741488;81;20266;-56
2021/03/26 22:41:32;;;;;;;;;;;;;;;;;;1723077;82;20275;-56
2021/03/26 22:43:58;;;;;;;;;;;;;;;;;;1746489;81;20322;-57
2021/03/26 22:46:23;;;;;;;;;;;;;;;;;;1734066;80;20257;-48
2021/03/26 22:48:49;;;;;;;;;;;;;;;;;;1741306;81;20248;-55
2021/03/26 22:51:14;;;;;;;;;;;;;;;;;;1736502;82;20604;-57
2021/03/26 22:53:39;;;;;;;;;;;;;;;;;;1736180;81;20512;-52
2021/03/26 22:56:05;;;;;;;;;;;;;;;;;;1745157;80;20249;-56
2021/03/26 22:58:30;;;;;;;;;;;;;;;;;;1732019;82;20251;-54
2021/03/26 23:00:55;;;;;;;;;;;;;;;;;;1718172;83;20312;-49
2021/03/26 23:03:21;;;;;;;;;;;;;;;;;;1705521;84;20261;-57
2021/03/26 23:05:46;;;;;;;;;;;;;;;;;;1733276;81;20277;-55
2021/03/26 23:08:11;;;;;;;;;;;;;;;;;;1716750;81;20256;-53
2021/03/26 23:10:37;;;;;;;;;;;;;;;;;;1705573;83;20264;-56
2021/03/26 23:13:02;;;;;;;;;;;;;;;;;;1701926;82;20575;-57
2021/03/26 23:15:27;;;;;;;;;;;;;;;;;;1713469;83;20766;-56
2021/03/26 23:17:52;;;;;;;;;;;;;;;;;;1714927;82;20250;-52
2021/03/26 23:20:18;;;;;;;;;;;;;;;;;;1704120;83;20305;-52
2021/03/26 23:22:43;;;;;;;;;;;;;;;;;;1714144;84;20315;-54
2021/03/26 23:25:08;;;;;;;;;;;;;;;;;;1707762;83;20258;-50
2021/03/26 23:27:34;;;;;;;;;;;;;;;;;;1724520;83;20259;-57
2021/03/26 23:29:59;;;;;;;;;;;;;;;;;;1714929;83;20317;-55
2021/03/26 23:32:25;;;;;;;;;;;;;;;;;;1712162;83;20361;-55
2021/03/26 23:34:50;;;;;;;;;;;;;;;;;;1732206;82;20170;-57
2021/03/26 23:37:15;;;;;;;;;;;;;;;;;;1711352;83;20258;-55
2021/03/26 23:39:41;;;;;;;;;;;;;;;;;;1736035;82;20160;-57
2021/03/26 23:42:06;;;;;;;;;;;;;;;;;;1711852;83;20148;-52
2021/03/26 23:44:31;;;;;;;;;;;;;;;;;;1724530;82;20155;-56
2021/03/26 23:46:57;;;;;;;;;;;;;;;;;;1733395;82;20236;-52
2021/03/26 23:49:22;;;;;;;;;;;;;;;;;;1728205;82;20163;-48
2021/03/26 23:51:47;;;;;;;;;;;;;;;;;;1748858;82;20563;-56
2021/03/26 23:54:13;;;;;;;;;;;;;;;;;;1732918;82;20926;-57
2021/03/26 23:56:38;;;;;;;;;;;;;;;;;;1731218;82;20158;-57
2021/03/26 23:59:03;;;;;;;;;;;;;;;;;;1731707;82;20158;-56
